Time;durP1;ratioP1;P1;durP2;ratioP2;P2;SDS_P1;SDS_P2;PMS_P1;PMS_P2;Temp;Humidity;BMP_temperature;BMP_pressure;BME280_temperature;BME280_humidity;BME280_pressure;Samples;Min_cycle;Max_cycle;Signal;HPM_P1;HPM_P2
2022/04/07 00:02:13;;;;;;;4.70;1.80;;;11.10;91.30;;;;;;5075629;28;20231;-78
2022/04/07 00:05:08;;;;;;;5.73;2.07;;;11.00;91.60;;;;;;5073917;28;20260;-81
2022/04/07 00:07:44;;;;;;;3.93;2.03;;;11.00;92.30;;;;;;5075541;28;20216;-91
2022/04/07 00:10:16;;;;;;;5.83;1.67;;;11.00;92.50;;;;;;5067801;28;20182;-94
2022/04/07 00:12:46;;;;;;;4.10;1.63;;;11.00;92.80;;;;;;5063476;28;20230;-86
2022/04/07 00:15:14;;;;;;;3.07;1.90;;;11.00;92.50;;;;;;5064588;28;20314;-90
2022/04/07 00:17:40;;;;;;;4.37;1.90;;;11.10;92.60;;;;;;5072165;28;20256;-86
2022/04/07 00:20:06;;;;;;;3.50;1.80;;;11.00;92.80;;;;;;5076162;28;20173;-78
2022/04/07 00:22:37;;;;;;;3.17;1.80;;;11.10;92.30;;;;;;5076082;28;20165;-93
2022/04/07 00:25:20;;;;;;;4.63;1.73;;;11.20;92.60;;;;;;5066504;28;20624;-92
2022/04/07 00:27:46;;;;;;;5.53;1.80;;;11.10;92.70;;;;;;5058178;28;20200;-83
2022/04/07 00:30:15;;;;;;;4.33;1.80;;;11.10;92.60;;;;;;5058100;28;20169;-91
2022/04/07 00:32:42;;;;;;;4.93;1.60;;;11.00;93.00;;;;;;5056852;28;20169;-95
2022/04/07 00:35:09;;;;;;;3.37;1.67;;;11.00;93.30;;;;;;5057121;28;20253;-91
2022/04/07 00:37:35;;;;;;;5.30;1.83;;;11.10;93.10;;;;;;5057393;28;20209;-95
2022/04/07 00:40:01;;;;;;;5.17;2.10;;;11.10;92.80;;;;;;5065508;28;20213;-88
2022/04/07 00:42:26;;;;;;;5.03;2.03;;;11.10;92.70;;;;;;5063506;28;20180;-82
2022/04/07 00:44:52;;;;;;;4.87;2.03;;;11.10;93.00;;;;;;5055807;28;20237;-94
2022/04/07 00:47:19;;;;;;;4.77;1.83;;;11.10;92.70;;;;;;5058134;28;20218;-88
2022/04/07 00:49:45;;;;;;;4.27;1.80;;;11.10;92.80;;;;;;5070109;28;20197;-86
2022/04/07 00:52:12;;;;;;;4.57;1.57;;;11.10;92.60;;;;;;5062701;28;20579;-94
2022/04/07 00:54:41;;;;;;;5.13;1.60;;;11.20;92.80;;;;;;5065142;28;20165;-89
2022/04/07 00:57:09;;;;;;;5.10;2.20;;;11.10;92.40;;;;;;5076608;28;20623;-80
2022/04/07 00:59:35;;;;;;;6.83;2.00;;;11.10;92.70;;;;;;5058576;28;20164;-77
2022/04/07 01:02:02;;;;;;;5.10;1.70;;;11.10;92.40;;;;;;5092566;28;20172;-76
2022/04/07 01:04:30;;;;;;;5.30;1.80;;;11.20;92.30;;;;;;5076839;28;20675;-84
2022/04/07 01:07:15;;;;;;;6.33;2.03;;;11.30;92.50;;;;;;5094160;28;20176;-77
2022/04/07 01:09:43;;;;;;;3.97;2.00;;;11.20;92.60;;;;;;5094732;28;20156;-78
2022/04/07 01:12:39;;;;;;;4.73;1.60;;;11.20;92.90;;;;;;5095537;28;20167;-76
2022/04/07 01:15:07;;;;;;;5.33;2.00;;;11.20;93.70;;;;;;5090585;28;20191;-78
2022/04/07 01:17:45;;;;;;;5.80;2.10;;;11.10;94.00;;;;;;5082158;28;20156;-93
2022/04/07 01:20:23;;;;;;;9.60;2.27;;;11.10;94.10;;;;;;5066317;28;20247;-82
2022/04/07 01:23:24;;;;;;;5.20;2.20;;;11.20;93.90;;;;;;5073600;28;20192;-78
2022/04/07 01:26:09;;;;;;;6.83;2.17;;;11.10;93.80;;;;;;5091895;28;20160;-84
2022/04/07 01:28:35;;;;;;;4.00;2.00;;;11.10;93.90;;;;;;5074087;28;20171;-91
2022/04/07 01:31:02;;;;;;;6.73;2.00;;;11.10;94.30;;;;;;5069771;28;20161;-88
2022/04/07 01:33:29;;;;;;;5.60;2.20;;;11.20;94.00;;;;;;5069675;28;20180;-89
2022/04/07 01:35:55;;;;;;;8.30;2.07;;;11.10;93.90;;;;;;5074135;28;20152;-77
2022/04/07 01:38:21;;;;;;;3.30;1.77;;;11.10;94.10;;;;;;5073875;28;20157;-80
2022/04/07 01:40:50;;;;;;;6.50;2.10;;;11.10;94.20;;;;;;5045658;28;20609;-80
2022/04/07 01:43:16;;;;;;;8.37;2.37;;;11.10;94.10;;;;;;5063498;28;20292;-92
2022/04/07 01:45:45;;;;;;;3.90;1.93;;;11.20;93.90;;;;;;5025788;28;20269;-90
2022/04/07 01:48:16;;;;;;;5.10;2.30;;;11.20;93.20;;;;;;5060187;28;20201;-91
2022/04/07 01:50:44;;;;;;;5.77;2.00;;;11.20;93.50;;;;;;5043987;28;20169;-83
2022/04/07 01:53:11;;;;;;;6.67;2.70;;;11.00;93.80;;;;;;5057113;28;20244;-78
2022/04/07 01:55:40;;;;;;;8.07;2.40;;;11.00;93.30;;;;;;5073998;28;20169;-86
2022/04/07 01:58:06;;;;;;;7.57;2.10;;;11.10;93.30;;;;;;5090415;28;20178;-77
2022/04/07 02:00:40;;;;;;;3.90;2.20;;;11.10;93.00;;;;;;5080472;28;20608;-75
2022/04/07 02:03:07;;;;;;;6.53;2.20;;;11.10;92.90;;;;;;5097488;28;20212;-81
2022/04/07 02:05:35;;;;;;;7.20;2.40;;;11.00;92.90;;;;;;5098500;28;20180;-79
2022/04/07 02:08:02;;;;;;;5.83;2.13;;;11.00;92.70;;;;;;5098800;28;20184;-78
2022/04/07 02:10:31;;;;;;;6.23;2.20;;;11.00;92.60;;;;;;5099053;28;20173;-78
2022/04/07 02:13:00;;;;;;;6.43;2.30;;;11.00;92.40;;;;;;5091995;28;20173;-80
2022/04/07 02:16:19;;;;;;;5.37;1.80;;;11.00;91.80;;;;;;5095528;28;20188;-80
2022/04/07 02:19:17;;;;;;;7.40;2.20;;;11.00;92.00;;;;;;5092633;28;20157;-87
2022/04/07 02:21:45;;;;;;;4.70;2.00;;;11.00;92.40;;;;;;5091662;28;20182;-89
2022/04/07 02:24:11;;;;;;;3.87;2.10;;;11.00;92.90;;;;;;5087934;28;20196;-95
2022/04/07 02:26:37;;;;;;;7.30;2.03;;;11.00;92.70;;;;;;5080951;28;20278;-88
2022/04/07 02:29:02;;;;;;;6.93;2.57;;;11.00;93.10;;;;;;5061903;28;20199;-83
2022/04/07 02:31:28;;;;;;;5.33;2.00;;;11.00;93.70;;;;;;5081614;28;20191;-85
2022/04/07 02:33:53;;;;;;;6.20;1.87;;;11.00;93.80;;;;;;5083863;28;20632;-90
2022/04/07 02:36:19;;;;;;;5.93;2.07;;;11.00;94.10;;;;;;5084267;28;20207;-86
2022/04/07 02:38:45;;;;;;;5.40;1.87;;;11.00;94.30;;;;;;5091570;28;20282;-88
2022/04/07 02:41:10;;;;;;;4.90;1.97;;;11.10;94.00;;;;;;5088548;28;20208;-91
2022/04/07 02:43:36;;;;;;;4.53;1.93;;;11.00;94.40;;;;;;5084177;28;20208;-89
2022/04/07 02:46:04;;;;;;;4.27;1.97;;;11.10;94.30;;;;;;5082812;28;20160;-92
2022/04/07 02:48:32;;;;;;;2.83;1.80;;;11.00;94.70;;;;;;5079054;28;20168;-92
2022/04/07 02:50:57;;;;;;;4.60;2.37;;;11.00;94.90;;;;;;5090870;28;20254;-88
2022/04/07 02:53:24;;;;;;;2.93;1.90;;;11.10;94.40;;;;;;5080357;28;20226;-91
2022/04/07 02:55:50;;;;;;;5.07;1.60;;;11.00;94.90;;;;;;5078344;28;20160;-89
2022/04/07 02:58:17;;;;;;;3.83;2.30;;;11.00;95.10;;;;;;5092709;28;20244;-88
2022/04/07 03:00:42;;;;;;;4.50;1.90;;;11.00;95.40;;;;;;5090406;28;20574;-92
2022/04/07 03:03:08;;;;;;;3.13;1.67;;;11.00;95.40;;;;;;5081471;28;20204;-80
2022/04/07 03:05:37;;;;;;;5.23;1.57;;;11.00;95.50;;;;;;5060117;28;20169;-82
2022/04/07 03:08:04;;;;;;;4.03;1.73;;;11.00;95.80;;;;;;5076309;28;20581;-78
2022/04/07 03:10:30;;;;;;;2.80;1.60;;;11.00;96.20;;;;;;5075959;28;20282;-91
2022/04/07 03:12:57;;;;;;;2.63;1.60;;;11.00;96.40;;;;;;5063061;28;20243;-84
2022/04/07 03:15:23;;;;;;;4.50;1.90;;;11.00;96.80;;;;;;5086778;28;20195;-93
2022/04/07 03:17:48;;;;;;;3.30;1.77;;;11.00;96.90;;;;;;5076900;28;20172;-92
2022/04/07 03:20:15;;;;;;;2.47;1.40;;;11.00;96.30;;;;;;5077629;28;20534;-91
2022/04/07 03:22:41;;;;;;;3.50;1.60;;;11.00;96.40;;;;;;5076950;28;20202;-76
2022/04/07 03:25:07;;;;;;;3.60;1.30;;;11.00;96.40;;;;;;5084835;28;20250;-77
2022/04/07 03:27:33;;;;;;;2.67;1.43;;;11.00;96.90;;;;;;5088186;28;20192;-81
2022/04/07 03:30:00;;;;;;;2.13;1.40;;;11.00;97.40;;;;;;5069264;28;20219;-92
2022/04/07 03:32:28;;;;;;;2.80;1.43;;;11.00;98.10;;;;;;5066152;28;20173;-91
2022/04/07 03:34:57;;;;;;;5.30;1.40;;;10.90;98.60;;;;;;5058040;28;20181;-92
2022/04/07 03:37:23;;;;;;;2.20;1.00;;;10.80;98.90;;;;;;5067706;28;20156;-76
2022/04/07 03:39:49;;;;;;;4.37;1.43;;;10.80;99.10;;;;;;5076581;28;20162;-79
2022/04/07 03:42:16;;;;;;;3.70;1.40;;;10.80;99.00;;;;;;5074255;28;20785;-75
2022/04/07 03:44:41;;;;;;;3.27;1.07;;;10.80;98.70;;;;;;5073415;28;20224;-76
2022/04/07 03:50:29;;;;;;;4.63;1.50;;;10.70;99.30;;;;;;5059366;28;20172;-88
2022/04/07 03:52:55;;;;;;;5.47;1.60;;;10.70;99.70;;;;;;5065432;28;20181;-77
2022/04/07 03:55:22;;;;;;;5.93;1.60;;;10.50;99.90;;;;;;5092625;28;20172;-80
2022/04/07 03:57:49;;;;;;;4.20;1.40;;;10.50;99.90;;;;;;5068547;28;20172;-92
2022/04/07 04:00:19;;;;;;;3.00;1.50;;;10.40;99.90;;;;;;5077775;28;20218;-79
2022/04/07 04:02:45;;;;;;;3.00;1.43;;;10.40;99.90;;;;;;5060021;28;20207;-91
2022/04/07 04:05:11;;;;;;;4.60;2.10;;;10.40;99.90;;;;;;5060386;28;20601;-92
2022/04/07 04:07:37;;;;;;;3.87;2.07;;;10.40;99.90;;;;;;5089450;28;20183;-77
2022/04/07 04:10:04;;;;;;;4.07;1.70;;;10.40;99.90;;;;;;5090652;28;20187;-80
2022/04/07 04:12:36;;;;;;;4.53;2.13;;;10.40;99.90;;;;;;5081583;28;20744;-92
2022/04/07 04:15:02;;;;;;;4.73;2.20;;;10.40;99.90;;;;;;5075966;28;20188;-82
2022/04/07 04:17:32;;;;;;;5.23;2.40;;;10.40;99.90;;;;;;5058239;28;20584;-91
2022/04/07 04:19:58;;;;;;;5.50;2.30;;;10.40;99.90;;;;;;5076714;28;20199;-84
2022/04/07 04:22:24;;;;;;;6.47;2.43;;;10.40;99.90;;;;;;5077651;28;20156;-90
2022/04/07 04:24:51;;;;;;;5.60;2.40;;;10.40;99.90;;;;;;5080856;28;20172;-87
2022/04/07 04:27:16;;;;;;;5.60;2.13;;;10.40;99.90;;;;;;5087459;28;20180;-91
2022/04/07 04:29:43;;;;;;;6.40;2.40;;;10.40;99.90;;;;;;5077107;28;20199;-90
2022/04/07 04:32:10;;;;;;;6.30;2.30;;;10.50;99.90;;;;;;5075984;28;20213;-85
2022/04/07 04:34:36;;;;;;;3.90;2.20;;;10.40;99.90;;;;;;5078778;28;20184;-84
2022/04/07 04:37:02;;;;;;;8.20;2.10;;;10.40;99.90;;;;;;5084051;28;20184;-89
2022/04/07 04:39:28;;;;;;;5.63;2.47;;;10.50;99.90;;;;;;5087919;28;20616;-79
2022/04/07 04:41:54;;;;;;;8.53;2.33;;;10.50;99.90;;;;;;5086592;28;20196;-86
2022/04/07 04:44:19;;;;;;;7.30;2.50;;;10.50;99.90;;;;;;5085534;28;20196;-92
2022/04/07 04:46:45;;;;;;;6.30;1.97;;;10.70;99.90;;;;;;5063103;28;20632;-88
2022/04/07 04:49:11;;;;;;;6.93;2.23;;;10.50;99.90;;;;;;5083943;28;20176;-83
2022/04/07 04:51:36;;;;;;;5.30;2.27;;;10.50;99.90;;;;;;5062489;28;20540;-87
2022/04/07 04:54:02;;;;;;;8.47;2.07;;;10.50;99.90;;;;;;5080133;28;20263;-90
2022/04/07 04:56:28;;;;;;;4.93;2.13;;;10.50;99.90;;;;;;5080023;28;20179;-90
2022/04/07 04:58:54;;;;;;;8.73;2.27;;;10.50;99.90;;;;;;5079883;28;20691;-80
2022/04/07 05:01:20;;;;;;;4.67;1.73;;;10.50;99.70;;;;;;5048364;28;20616;-81
2022/04/07 05:03:46;;;;;;;9.27;2.20;;;10.50;99.40;;;;;;5068795;28;20224;-89
2022/04/07 05:06:11;;;;;;;5.53;2.03;;;10.50;99.50;;;;;;5069526;28;20160;-90
2022/04/07 05:08:37;;;;;;;9.37;2.30;;;10.50;99.20;;;;;;5082366;28;20164;-82
2022/04/07 05:11:05;;;;;;;4.23;1.80;;;10.60;98.50;;;;;;5081610;28;20171;-92
2022/04/07 05:13:31;;;;;;;6.33;1.80;;;10.50;97.60;;;;;;5062223;28;20172;-91
2022/04/07 05:15:58;;;;;;;6.00;1.47;;;10.50;97.30;;;;;;5078838;28;20188;-83
2022/04/07 05:18:24;;;;;;;7.93;1.83;;;10.50;96.80;;;;;;5079823;28;20226;-92
2022/04/07 05:20:50;;;;;;;3.87;1.50;;;10.50;96.30;;;;;;5087211;28;20187;-78
2022/04/07 05:23:16;;;;;;;5.67;1.70;;;10.50;96.20;;;;;;5078146;28;20200;-81
2022/04/07 05:25:43;;;;;;;8.27;2.13;;;10.60;95.80;;;;;;5085438;28;20175;-86
2022/04/07 05:28:08;;;;;;;5.10;2.00;;;10.60;95.50;;;;;;5062909;28;20180;-86
2022/04/07 05:30:34;;;;;;;8.27;1.80;;;10.60;95.30;;;;;;5067506;28;20180;-90
2022/04/07 05:32:59;;;;;;;7.57;2.30;;;10.60;95.20;;;;;;5075035;28;20209;-77
2022/04/07 05:35:29;;;;;;;5.23;2.83;;;10.60;95.30;;;;;;5079226;28;20160;-79
2022/04/07 05:38:17;;;;;;;8.63;2.60;;;10.60;95.10;;;;;;5077887;28;20141;-76
2022/04/07 05:40:48;;;;;;;6.83;3.40;;;10.60;94.80;;;;;;5078767;28;20145;-78
2022/04/07 05:43:43;;;;;;;8.30;3.10;;;10.60;94.70;;;;;;5075085;28;20232;-77
2022/04/07 05:46:15;;;;;;;6.37;2.90;;;10.60;94.50;;;;;;5076310;28;20142;-77
2022/04/07 05:52:12;;;;;;;5.03;2.40;;;10.70;94.20;;;;;;5076052;28;20160;-79
2022/04/07 05:58:08;;;;;;;4.47;2.13;;;10.80;94.90;;;;;;5069848;28;20244;-92
2022/04/07 06:00:37;;;;;;;6.73;1.80;;;10.80;95.30;;;;;;5063886;28;20173;-90
2022/04/07 06:03:04;;;;;;;4.47;1.83;;;10.80;95.80;;;;;;5067872;28;20200;-86
2022/04/07 06:05:33;;;;;;;6.50;2.43;;;10.80;96.20;;;;;;5074188;28;20218;-80
2022/04/07 06:08:09;;;;;;;5.10;1.93;;;10.80;96.70;;;;;;5069488;28;20177;-78
2022/04/07 06:10:37;;;;;;;9.07;2.23;;;10.90;97.30;;;;;;5063075;28;20566;-85
2022/04/07 06:13:09;;;;;;;7.53;2.87;;;10.80;97.80;;;;;;5060468;28;20207;-77
2022/04/07 06:15:36;;;;;;;7.80;2.13;;;10.80;98.50;;;;;;5064950;28;20199;-82
2022/04/07 06:18:02;;;;;;;5.07;2.80;;;10.80;98.90;;;;;;5068611;28;20170;-78
2022/04/07 06:20:28;;;;;;;6.53;2.50;;;10.80;99.80;;;;;;5069983;28;20180;-88
2022/04/07 06:22:54;;;;;;;5.03;2.87;;;10.70;99.90;;;;;;5077531;28;20263;-79
2022/04/07 06:25:29;;;;;;;6.57;2.77;;;10.70;99.90;;;;;;5094561;28;20156;-78
2022/04/07 06:27:56;;;;;;;8.67;2.90;;;10.70;99.90;;;;;;5095739;28;20183;-80
2022/04/07 06:30:22;;;;;;;6.90;3.00;;;10.70;99.90;;;;;;5097988;28;20168;-81
2022/04/07 06:32:52;;;;;;;7.27;3.10;;;10.80;99.90;;;;;;5074996;28;20230;-78
2022/04/07 06:35:18;;;;;;;6.83;2.50;;;10.80;99.90;;;;;;5090566;28;20223;-79
2022/04/07 06:37:54;;;;;;;4.70;2.90;;;11.00;99.90;;;;;;5062482;28;20160;-80
2022/04/07 06:40:25;;;;;;;5.60;2.30;;;11.00;99.90;;;;;;5079945;28;20562;-81
2022/04/07 06:42:53;;;;;;;6.13;2.97;;;11.00;99.90;;;;;;5079380;28;20317;-93
2022/04/07 06:45:20;;;;;;;7.50;2.07;;;11.00;99.90;;;;;;5082467;28;20172;-86
2022/04/07 06:47:56;;;;;;;4.07;1.90;;;11.00;99.90;;;;;;5087515;28;20168;-87
2022/04/07 06:50:31;;;;;;;3.93;1.40;;;11.10;99.90;;;;;;5084883;28;20160;-82
2022/04/07 06:53:00;;;;;;;4.37;1.63;;;11.20;99.90;;;;;;5072745;28;20172;-83
2022/04/07 06:55:26;;;;;;;3.73;1.83;;;11.20;99.90;;;;;;5084427;28;20271;-91
2022/04/07 06:58:14;;;;;;;3.03;1.47;;;11.20;99.90;;;;;;5080947;28;20176;-92
2022/04/07 07:00:45;;;;;;;1.47;1.20;;;11.20;99.90;;;;;;5082453;28;20214;-94
2022/04/07 07:03:14;;;;;;;3.33;1.30;;;11.30;99.90;;;;;;5064605;28;20656;-88
2022/04/07 07:05:43;;;;;;;2.33;1.17;;;11.30;99.90;;;;;;5060892;28;20180;-92
2022/04/07 07:08:20;;;;;;;4.03;1.67;;;11.40;99.90;;;;;;5079162;28;20202;-89
2022/04/07 07:10:48;;;;;;;1.87;1.00;;;11.40;99.90;;;;;;5065698;28;20157;-88
2022/04/07 07:13:20;;;;;;;3.83;1.10;;;11.40;99.90;;;;;;5067771;28;20173;-90
2022/04/07 07:15:47;;;;;;;2.90;1.40;;;11.40;99.90;;;;;;5057615;28;20242;-85
2022/04/07 07:18:13;;;;;;;2.10;1.10;;;11.50;99.90;;;;;;5039899;28;20181;-91
2022/04/07 07:20:39;;;;;;;2.20;1.33;;;11.40;99.90;;;;;;5061815;28;20168;-88
2022/04/07 07:23:07;;;;;;;2.40;1.20;;;11.50;99.90;;;;;;5067059;28;20213;-90
2022/04/07 07:25:42;;;;;;;1.67;0.93;;;11.50;99.90;;;;;;5061504;28;20161;-85
2022/04/07 07:28:09;;;;;;;2.00;1.30;;;11.50;99.90;;;;;;5063368;28;20199;-87
2022/04/07 07:30:48;;;;;;;1.70;1.00;;;11.50;99.90;;;;;;5065442;28;20489;-83
2022/04/07 07:33:14;;;;;;;1.70;1.00;;;11.50;99.90;;;;;;5070539;28;20187;-91
2022/04/07 07:35:45;;;;;;;3.27;1.30;;;11.50;99.90;;;;;;5066559;28;20169;-88
2022/04/07 07:38:12;;;;;;;2.27;1.27;;;11.50;99.90;;;;;;5062053;28;20238;-91
2022/04/07 07:40:37;;;;;;;1.90;1.10;;;11.40;99.90;;;;;;5090338;28;20196;-81
2022/04/07 07:43:03;;;;;;;3.37;1.20;;;11.40;99.90;;;;;;5074072;28;20200;-78
2022/04/07 07:45:35;;;;;;;2.93;1.20;;;11.40;99.90;;;;;;5094436;28;20188;-80
2022/04/07 07:48:04;;;;;;;1.20;0.90;;;11.50;99.90;;;;;;5092789;28;20164;-78
2022/04/07 07:50:45;;;;;;;2.93;1.17;;;11.50;99.90;;;;;;5091766;28;20156;-87
2022/04/07 07:53:11;;;;;;;2.73;1.10;;;11.60;99.90;;;;;;5089574;28;20156;-86
2022/04/07 07:55:39;;;;;;;1.73;0.90;;;11.60;99.90;;;;;;5087775;28;20226;-93
2022/04/07 07:58:30;;;;;;;2.67;1.00;;;11.70;99.90;;;;;;5086088;28;20184;-77
2022/04/07 08:04:38;;;;;;;1.37;0.93;;;11.70;99.90;;;;;;5094861;28;20230;-77
2022/04/07 08:07:07;;;;;;;1.20;1.00;;;11.70;99.90;;;;;;5096433;28;20148;-77
2022/04/07 08:09:58;;;;;;;2.93;1.20;;;11.70;99.90;;;;;;5093085;28;20180;-77
2022/04/07 08:12:50;;;;;;;2.50;0.90;;;11.70;99.90;;;;;;5092256;28;20149;-77
2022/04/07 08:15:53;;;;;;;1.27;0.70;;;11.50;99.90;;;;;;5092435;28;20192;-78
2022/04/07 08:18:55;;;;;;;0.80;0.70;;;11.40;99.90;;;;;;5092224;28;20152;-76
2022/04/07 08:21:33;;;;;;;2.43;0.90;;;11.40;99.90;;;;;;5097620;28;20144;-75
2022/04/07 08:24:08;;;;;;;1.20;0.70;;;11.30;99.90;;;;;;5095842;28;20188;-76
2022/04/07 08:33:21;;;;;;;1.30;0.90;;;11.20;99.90;;;;;;5101091;22;20231;-77
2022/04/07 08:39:10;;;;;;;1.10;0.70;;;11.30;99.90;;;;;;5091284;28;20151;-77
2022/04/07 08:45:23;;;;;;;1.17;0.60;;;11.10;99.90;;;;;;5092981;28;20190;-77
2022/04/07 08:48:14;;;;;;;1.67;0.63;;;11.10;99.90;;;;;;5093786;28;20157;-77
2022/04/07 08:50:51;;;;;;;1.03;0.90;;;11.00;99.90;;;;;;5091648;28;20164;-78
2022/04/07 08:53:39;;;;;;;1.73;0.90;;;11.10;99.90;;;;;;5086093;28;20164;-78
2022/04/07 08:56:10;;;;;;;1.87;0.90;;;11.20;99.60;;;;;;5090104;28;20195;-78
2022/04/07 08:58:45;;;;;;;1.40;0.70;;;11.20;99.00;;;;;;5069873;28;20518;-76
2022/04/07 09:01:52;;;;;;;1.63;0.80;;;11.30;99.10;;;;;;5088720;28;20149;-77
2022/04/07 09:07:57;;;;;;;2.20;0.80;;;11.30;99.20;;;;;;5089679;28;20163;-80
2022/04/07 09:11:06;;;;;;;2.10;0.97;;;11.20;98.60;;;;;;5085660;28;20581;-80
2022/04/07 09:13:46;;;;;;;1.10;0.60;;;11.10;98.10;;;;;;5065693;28;20176;-81
2022/04/07 09:16:16;;;;;;;1.37;0.67;;;11.00;96.00;;;;;;5064745;28;20164;-80
2022/04/07 09:18:44;;;;;;;0.90;0.50;;;11.00;94.90;;;;;;5080043;28;20164;-86
2022/04/07 09:21:43;;;;;;;5.40;1.30;;;11.10;93.80;;;;;;5081363;28;20198;-81
2022/04/07 09:24:11;;;;;;;2.80;0.50;;;11.20;93.60;;;;;;5084855;28;20212;-85
2022/04/07 09:26:39;;;;;;;4.83;1.00;;;11.30;90.40;;;;;;5082251;28;20165;-79
2022/04/07 09:29:36;;;;;;;3.87;1.00;;;11.30;88.40;;;;;;5079787;28;20248;-79
2022/04/07 09:32:03;;;;;;;1.33;0.77;;;11.50;85.10;;;;;;5092062;28;20195;-82
2022/04/07 09:34:33;;;;;;;2.37;1.23;;;11.50;81.80;;;;;;5089838;28;20195;-89
2022/04/07 09:37:09;;;;;;;3.67;1.00;;;11.50;76.20;;;;;;5086916;28;20171;-86
2022/04/07 09:39:39;;;;;;;2.97;0.80;;;11.40;70.10;;;;;;5092309;28;20206;-76
2022/04/07 09:42:44;;;;;;;5.27;0.90;;;11.50;76.50;;;;;;5099254;28;20156;-76
2022/04/07 09:45:44;;;;;;;2.40;0.80;;;11.60;71.70;;;;;;5098361;28;20188;-77
2022/04/07 09:48:19;;;;;;;4.93;1.30;;;11.70;58.60;;;;;;5096114;28;20191;-77
2022/04/07 09:51:10;;;;;;;4.40;1.67;;;11.80;61.30;;;;;;5094051;28;20286;-77
2022/04/07 09:54:10;;;;;;;4.30;1.10;;;11.90;58.90;;;;;;5095609;28;20222;-83
2022/04/07 09:56:48;;;;;;;3.47;1.00;;;12.00;53.30;;;;;;5087139;28;20230;-78
2022/04/07 09:59:49;;;;;;;2.03;1.07;;;12.10;47.20;;;;;;5087834;28;20164;-89
2022/04/07 10:02:17;;;;;;;6.53;1.80;;;12.10;48.20;;;;;;5047526;28;20226;-88
2022/04/07 10:04:43;;;;;;;4.53;1.30;;;12.10;41.20;;;;;;5062052;28;20342;-83
2022/04/07 10:07:11;;;;;;;4.23;1.20;;;12.10;40.90;;;;;;5065981;28;20585;-81
2022/04/07 10:10:00;;;;;;;4.57;1.73;;;12.20;35.60;;;;;;5059357;28;20180;-85
2022/04/07 10:12:34;;;;;;;5.20;1.37;;;12.30;44.60;;;;;;5084931;28;20776;-85
2022/04/07 10:15:00;;;;;;;5.43;1.63;;;12.40;30.00;;;;;;5070944;28;20202;-84
2022/04/07 10:17:26;;;;;;;6.33;1.50;;;12.40;29.70;;;;;;5083511;28;20173;-81
2022/04/07 10:20:17;;;;;;;3.73;1.30;;;12.50;28.40;;;;;;5090434;28;20231;-77
2022/04/07 10:23:21;;;;;;;2.90;1.17;;;12.40;22.80;;;;;;5093737;28;20175;-77
2022/04/07 10:26:24;;;;;;;6.67;1.60;;;12.50;16.80;;;;;;5096880;28;20156;-77
2022/04/07 10:29:17;;;;;;;4.90;1.43;;;12.60;22.90;;;;;;5096368;28;20147;-78
2022/04/07 10:32:18;;;;;;;5.47;1.60;;;12.60;23.80;;;;;;5079095;28;20176;-80
2022/04/07 10:35:08;;;;;;;4.67;1.07;;;12.60;8.90;;;;;;5092618;28;20226;-85
2022/04/07 10:37:42;;;;;;;2.87;1.20;;;12.60;14.50;;;;;;5098388;28;20628;-80
2022/04/07 10:40:48;;;;;;;5.47;1.80;;;12.80;20.50;;;;;;5095559;28;20172;-80
2022/04/07 10:43:20;;;;;;;6.33;1.40;;;12.90;27.20;;;;;;5076615;28;20207;-77
2022/04/07 10:45:52;;;;;;;7.63;1.57;;;13.00;14.80;;;;;;5075045;28;20144;-77
2022/04/07 10:48:28;;;;;;;5.97;1.57;;;13.10;5.10;;;;;;5073835;28;20158;-77
2022/04/07 10:51:09;;;;;;;5.77;1.87;;;13.30;2.50;;;;;;5069575;28;20167;-79
2022/04/07 10:54:02;;;;;;;8.87;1.40;;;13.30;1.00;;;;;;5069281;28;20157;-77
2022/04/07 10:57:04;;;;;;;6.37;1.80;;;13.20;1.00;;;;;;5070585;28;20161;-77
2022/04/07 10:59:36;;;;;;;6.60;1.80;;;13.30;1.00;;;;;;5060926;28;20172;-79
2022/04/07 11:02:32;;;;;;;6.03;1.60;;;13.50;1.00;;;;;;5061342;28;20177;-77
2022/04/07 11:05:37;;;;;;;3.93;1.50;;;13.50;1.00;;;;;;5059477;28;20208;-78
2022/04/07 11:08:22;;;;;;;6.63;1.90;;;13.50;1.00;;;;;;5062453;28;20168;-87
2022/04/07 11:10:52;;;;;;;6.97;1.57;;;13.30;1.00;;;;;;5066836;28;20230;-79
2022/04/07 11:13:43;;;;;;;5.53;1.50;;;13.20;1.00;;;;;;5080798;28;20152;-89
2022/04/07 11:16:23;;;;;;;8.80;1.40;;;13.20;1.00;;;;;;5068530;28;20675;-90
2022/04/07 11:19:20;;;;;;;10.27;2.30;;;13.20;1.00;;;;;;5082866;28;20176;-83
2022/04/07 11:22:07;;;;;;;6.07;1.43;;;13.30;1.00;;;;;;5084743;28;20153;-88
2022/04/07 11:24:43;;;;;;;4.63;1.47;;;13.40;1.00;;;;;;5091090;28;20191;-91
2022/04/07 11:27:52;;;;;;;6.37;2.60;;;13.50;1.00;;;;;;5091597;28;20160;-79
2022/04/07 11:30:18;;;;;;;7.90;2.03;;;13.40;1.00;;;;;;5085757;28;20176;-78
2022/04/07 11:33:28;;;;;;;6.77;1.80;;;13.20;1.00;;;;;;5065483;28;20183;-89
2022/04/07 11:36:04;;;;;;;6.93;1.70;;;13.10;1.00;;;;;;5077987;28;20217;-79
2022/04/07 11:38:37;;;;;;;13.07;3.93;;;13.30;1.00;;;;;;5067472;28;20221;-78
2022/04/07 11:41:07;;;;;;;7.90;2.67;;;13.40;1.00;;;;;;5059563;28;20687;-79
2022/04/07 11:43:38;;;;;;;9.90;3.10;;;13.40;1.00;;;;;;5057656;28;20211;-78
2022/04/07 11:46:07;;;;;;;8.73;3.03;;;13.20;1.00;;;;;;5075854;28;20229;-86
2022/04/07 11:48:36;;;;;;;10.17;3.80;;;13.10;1.00;;;;;;5061485;28;20176;-78
2022/04/07 11:51:17;;;;;;;7.50;3.27;;;13.00;1.00;;;;;;5081115;28;20644;-77
2022/04/07 11:53:51;;;;;;;10.30;3.20;;;13.10;1.00;;;;;;5068086;28;20164;-80
2022/04/07 11:56:22;;;;;;;10.63;4.17;;;13.10;1.00;;;;;;5068335;28;20167;-82
2022/04/07 11:58:57;;;;;;;8.40;2.90;;;13.10;1.00;;;;;;5083336;28;20163;-77
2022/04/07 12:01:23;;;;;;;7.70;2.37;;;13.10;1.00;;;;;;5078263;28;20178;-78
2022/04/07 12:03:53;;;;;;;8.70;2.53;;;13.30;1.00;;;;;;5081011;28;20204;-80
2022/04/07 12:06:40;;;;;;;11.03;3.03;;;13.20;1.00;;;;;;5077593;28;20206;-81
2022/04/07 12:09:52;;;;;;;10.10;2.97;;;13.30;1.00;;;;;;5079826;28;20235;-89
2022/04/07 12:12:20;;;;;;;6.97;2.40;;;13.40;1.00;;;;;;5081319;28;20180;-83
2022/04/07 12:14:52;;;;;;;8.83;2.70;;;13.40;1.00;;;;;;5079708;28;20180;-88
2022/04/07 12:17:18;;;;;;;9.10;2.70;;;13.50;1.00;;;;;;5078210;28;20175;-78
2022/04/07 12:19:45;;;;;;;8.83;3.00;;;13.50;1.00;;;;;;5080731;28;20225;-78
2022/04/07 12:22:12;;;;;;;11.40;4.60;;;13.40;1.00;;;;;;5081070;28;20180;-88
2022/04/07 12:25:01;;;;;;;12.00;5.33;;;13.40;1.00;;;;;;5078328;28;20667;-80
2022/04/07 12:27:34;;;;;;;11.13;3.13;;;13.40;1.00;;;;;;5062527;28;20176;-83
2022/04/07 12:30:06;;;;;;;10.57;5.23;;;13.50;1.00;;;;;;5085329;28;20315;-87
2022/04/07 12:32:46;;;;;;;10.13;2.43;;;13.40;1.00;;;;;;5062728;28;20172;-76
2022/04/07 12:35:12;;;;;;;12.80;2.90;;;13.60;1.00;;;;;;5078133;28;20192;-77
2022/04/07 12:37:47;;;;;;;14.40;2.70;;;13.50;1.00;;;;;;5062370;28;20529;-78
2022/04/07 12:40:16;;;;;;;10.43;2.63;;;13.60;1.00;;;;;;5091270;28;20256;-78
2022/04/07 12:43:01;;;;;;;8.90;2.80;;;13.40;1.00;;;;;;5089760;28;20254;-80
2022/04/07 12:45:31;;;;;;;12.00;4.10;;;13.40;1.00;;;;;;5081070;28;20184;-89
2022/04/07 12:48:17;;;;;;;14.27;4.73;;;13.40;1.00;;;;;;5085469;28;20187;-83
2022/04/07 12:50:43;;;;;;;6.83;2.20;;;13.40;1.00;;;;;;5069782;28;20236;-81
2022/04/07 12:53:37;;;;;;;10.03;3.37;;;13.30;1.00;;;;;;5090643;28;20165;-81
2022/04/07 12:56:27;;;;;;;17.37;3.40;;;13.20;1.00;;;;;;5092006;28;20271;-78
2022/04/07 12:59:04;;;;;;;8.90;3.37;;;13.10;1.00;;;;;;5090173;28;20179;-76
2022/04/07 13:01:32;;;;;;;7.30;2.50;;;13.00;1.00;;;;;;5090673;28;20191;-76
2022/04/07 13:04:10;;;;;;;6.10;1.93;;;12.90;1.00;;;;;;5088262;28;20285;-75
2022/04/07 13:06:54;;;;;;;9.07;2.50;;;12.90;1.00;;;;;;5089844;28;20158;-77
2022/04/07 13:12:44;;;;;;;11.53;3.37;;;12.70;1.00;;;;;;5089644;28;20246;-77
2022/04/07 13:15:13;;;;;;;12.70;4.63;;;12.70;1.00;;;;;;5092976;28;20191;-79
2022/04/07 13:17:42;;;;;;;11.93;3.60;;;12.70;1.00;;;;;;5089339;28;20172;-79
2022/04/07 13:20:16;;;;;;;16.50;8.37;;;12.80;1.00;;;;;;5088526;28;20237;-87
2022/04/07 13:23:04;;;;;;;16.10;4.77;;;12.80;1.00;;;;;;5087759;28;20168;-89
2022/04/07 13:25:33;;;;;;;10.80;2.97;;;12.90;1.00;;;;;;5087688;28;20156;-83
2022/04/07 13:27:59;;;;;;;11.67;3.50;;;12.90;1.00;;;;;;5087183;28;20172;-80
2022/04/07 13:30:25;;;;;;;14.17;3.07;;;13.00;1.00;;;;;;5081391;28;20636;-85
2022/04/07 13:32:52;;;;;;;8.10;2.30;;;13.10;1.00;;;;;;5081839;28;20144;-84
2022/04/07 13:35:19;;;;;;;8.47;2.80;;;12.90;1.00;;;;;;5085330;28;20188;-85
2022/04/07 13:37:45;;;;;;;9.40;3.37;;;12.80;1.00;;;;;;5083319;28;20164;-78
2022/04/07 13:40:11;;;;;;;10.07;3.37;;;12.80;1.00;;;;;;5064305;28;20168;-81
2022/04/07 13:42:38;;;;;;;17.73;8.80;;;12.80;1.00;;;;;;5061299;28;20283;-78
2022/04/07 13:45:05;;;;;;;12.10;5.30;;;13.10;1.00;;;;;;5043153;28;20220;-78
2022/04/07 13:47:31;;;;;;;7.53;3.10;;;12.90;1.00;;;;;;5063804;28;20240;-87
2022/04/07 13:49:56;;;;;;;12.73;2.40;;;13.10;1.00;;;;;;5064191;28;20180;-79
2022/04/07 13:52:26;;;;;;;11.10;2.30;;;12.90;1.00;;;;;;5062411;28;20161;-79
2022/04/07 13:54:52;;;;;;;13.63;2.47;;;12.90;1.00;;;;;;5063522;28;20165;-87